Time;durP1;ratioP1;P1;durP2;ratioP2;P2;SDS_P1;SDS_P2;PMS_P1;PMS_P2;Temp;Humidity;BMP_temperature;BMP_pressure;BME280_temperature;BME280_humidity;BME280_pressure;Samples;Min_cycle;Max_cycle;Signal;HPM_P1;HPM_P2
2023/12/20 00:01:37;;;;;;;6.13;1.30;;;;;;;4.61;100.00;100943.25;4920022;29;20317;-71
2023/12/20 00:04:03;;;;;;;7.85;1.65;;;;;;;4.58;100.00;100943.69;4916245;29;20512;-71
2023/12/20 00:06:29;;;;;;;;;;;;;;;4.56;100.00;100943.13;4902755;29;20042;-71
2023/12/20 00:08:55;;;;;;;10.55;1.63;;;;;;;4.56;100.00;100945.78;4938522;28;19918;-71
2023/12/20 00:11:21;;;;;;;11.55;2.42;;;;;;;4.59;100.00;100933.88;4901306;29;20036;-71
2023/12/20 00:13:46;;;;;;;8.35;1.52;;;;;;;4.58;100.00;100935.72;4917752;29;20044;-71
2023/12/20 00:16:12;;;;;;;14.75;1.58;;;;;;;4.57;100.00;100928.81;4906095;29;20785;-71
2023/12/20 00:18:37;;;;;;;12.73;2.10;;;;;;;4.58;100.00;100933.09;4903351;29;20071;-71
2023/12/20 00:21:03;;;;;;;13.65;2.10;;;;;;;4.57;100.00;100944.72;4917912;29;20040;-72
2023/12/20 00:23:29;;;;;;;11.73;1.95;;;;;;;4.55;100.00;100932.72;4924085;29;20043;-72
2023/12/20 00:25:55;;;;;;;11.57;1.80;;;;;;;4.51;100.00;100939.50;4924421;29;20043;-72
2023/12/20 00:28:21;;;;;;;11.02;1.30;;;;;;;4.47;100.00;100931.22;4921677;29;20040;-70
2023/12/20 00:30:46;;;;;;;13.77;1.60;;;;;;;4.44;100.00;100925.53;4921841;29;20036;-69
2023/12/20 00:33:12;;;;;;;13.38;1.83;;;;;;;4.42;100.00;100928.41;4951535;28;20093;-72
2023/12/20 00:35:38;;;;;;;11.50;1.58;;;;;;;4.41;100.00;100928.66;4907364;29;20045;-71
2023/12/20 00:38:05;;;;;;;18.67;2.13;;;;;;;4.43;100.00;100921.25;4927947;29;20063;-71
2023/12/20 00:40:30;;;;;;;8.25;1.40;;;;;;;4.44;100.00;100925.53;4924667;29;20046;-71
2023/12/20 00:42:56;;;;;;;12.65;1.52;;;;;;;4.49;100.00;100923.84;4919506;29;20044;-71
2023/12/20 00:45:22;;;;;;;14.60;1.90;;;;;;;4.52;100.00;100911.94;4924360;29;20055;-71
2023/12/20 00:47:47;;;;;;;12.48;1.35;;;;;;;4.53;100.00;100914.38;4905203;29;20044;-71
2023/12/20 00:50:14;;;;;;;;;;;;;;;4.56;100.00;100916.59;4909380;29;20043;-71
2023/12/20 00:52:40;;;;;;;17.52;1.88;;;;;;;4.57;100.00;100910.25;4921568;29;19922;-71
2023/12/20 00:55:06;;;;;;;12.57;1.85;;;;;;;4.59;100.00;100894.91;4903602;29;20501;-71
2023/12/20 00:57:32;;;;;;;16.40;1.88;;;;;;;4.64;100.00;100903.00;4920087;29;20035;-72
2023/12/20 00:59:58;;;;;;;14.82;2.85;;;;;;;4.70;100.00;100892.53;4907394;29;20079;-71
2023/12/20 01:02:23;;;;;;;9.95;1.75;;;;;;;4.72;100.00;100901.06;4908560;29;20044;-71
2023/12/20 01:04:48;;;;;;;8.85;1.60;;;;;;;4.74;100.00;100898.97;4923276;29;20524;-71
2023/12/20 01:07:15;;;;;;;10.35;1.98;;;;;;;4.75;100.00;100897.97;4922384;29;20036;-71
2023/12/20 01:09:40;;;;;;;10.77;1.77;;;;;;;4.75;100.00;100879.41;4908408;29;20058;-71
2023/12/20 01:12:07;;;;;;;13.05;2.38;;;;;;;4.74;100.00;100875.09;4907566;29;20044;-71
2023/12/20 01:14:32;;;;;;;17.02;2.75;;;;;;;4.73;100.00;100876.13;4908650;29;20082;-70
2023/12/20 01:16:58;;;;;;;12.13;1.73;;;;;;;4.71;100.00;100878.22;4905311;29;20054;-69
2023/12/20 01:19:24;;;;;;;16.58;1.65;;;;;;;4.73;100.00;100873.50;4921243;29;20047;-74
2023/12/20 01:21:50;;;;;;;11.55;1.80;;;;;;;4.71;100.00;100879.03;4937806;28;20067;-72
2023/12/20 01:24:16;;;;;;;10.77;1.50;;;;;;;4.68;100.00;100882.16;4935087;28;20155;-71
2023/12/20 01:26:43;;;;;;;9.88;2.10;;;;;;;4.63;100.00;100871.41;4922293;29;20031;-70
2023/12/20 01:29:09;;;;;;;9.80;1.90;;;;;;;4.59;100.00;100863.06;4903823;29;20047;-70
2023/12/20 01:31:35;;;;;;;11.40;1.20;;;;;;;4.58;100.00;100872.06;4917076;29;20047;-72
2023/12/20 01:34:00;;;;;;;15.13;2.00;;;;;;;4.57;100.00;100872.31;4921941;29;20039;-71
2023/12/20 01:36:26;;;;;;;16.58;1.63;;;;;;;4.56;100.00;100873.34;4923991;29;20636;-72
2023/12/20 01:38:52;;;;;;;13.25;1.80;;;;;;;4.53;100.00;100876.44;4918708;29;20043;-71
2023/12/20 01:41:18;;;;;;;11.68;1.48;;;;;;;4.47;100.00;100875.53;4921231;29;20031;-70
2023/12/20 01:43:43;;;;;;;14.63;1.42;;;;;;;4.48;100.00;100878.97;4917096;29;20470;-70
2023/12/20 01:46:10;;;;;;;19.02;2.15;;;;;;;4.50;100.00;100882.19;4914888;29;20051;-70
2023/12/20 01:48:36;;;;;;;10.00;1.10;;;;;;;4.50;100.00;100874.25;4920762;29;20036;-69
2023/12/20 01:51:03;;;;;;;11.73;1.73;;;;;;;4.49;100.00;100862.84;4922102;29;20028;-73
2023/12/20 01:53:29;;;;;;;10.68;2.20;;;;;;;4.49;100.00;100864.69;4905860;29;20102;-72
2023/12/20 01:55:56;;;;;;;;;;;;;;;4.46;100.00;100854.50;4903111;29;20572;-71
2023/12/20 01:58:23;;;;;;;12.15;1.20;;;;;;;4.45;100.00;100856.34;4923521;29;20026;-71
2023/12/20 02:00:49;;;;;;;11.25;1.50;;;;;;;4.44;100.00;100857.38;4924721;29;20039;-72
2023/12/20 02:03:15;;;;;;;;;;;;;;;4.46;100.00;100862.47;4920860;29;20422;-72
2023/12/20 02:05:41;;;;;;;13.45;1.75;;;;;;;4.45;100.00;100861.66;4937511;28;20332;-71
2023/12/20 02:08:07;;;;;;;7.55;1.60;;;;;;;4.48;100.00;100866.53;4923303;29;20382;-72
2023/12/20 02:10:32;;;;;;;17.13;2.00;;;;;;;4.49;100.00;100857.53;4923530;29;20087;-72
2023/12/20 02:12:58;;;;;;;9.85;1.88;;;;;;;4.46;100.00;100839.41;4934057;28;20119;-72
2023/12/20 02:15:24;;;;;;;10.82;1.63;;;;;;;4.44;100.00;100838.81;4927004;29;20493;-72
2023/12/20 02:17:50;;;;;;;8.77;1.20;;;;;;;4.43;100.00;100845.16;4908516;29;20055;-72
2023/12/20 02:20:16;;;;;;;8.98;1.55;;;;;;;4.40;100.00;100829.69;4924277;29;20031;-71
2023/12/20 02:22:42;;;;;;;13.07;1.77;;;;;;;4.42;100.00;100829.50;4890125;29;20408;-72
2023/12/20 02:25:08;;;;;;;12.27;2.00;;;;;;;4.41;100.00;100826.03;4934176;28;20044;-72
2023/12/20 02:27:35;;;;;;;8.15;1.45;;;;;;;4.41;100.00;100826.03;4926361;29;20051;-72
2023/12/20 02:30:01;;;;;;;8.43;1.50;;;;;;;4.39;100.00;100812.16;4919006;29;20044;-72
2023/12/20 02:32:27;;;;;;;12.70;1.88;;;;;;;4.37;100.00;100815.06;4920944;29;20034;-71
2023/12/20 02:34:53;;;;;;;13.10;1.90;;;;;;;4.37;100.00;100807.09;4921389;29;20622;-71
2023/12/20 02:37:19;;;;;;;10.07;1.80;;;;;;;4.41;100.00;100826.03;4919448;29;20031;-71
2023/12/20 02:39:44;;;;;;;14.68;2.28;;;;;;;4.44;100.00;100817.63;4920580;29;20098;-71
2023/12/20 02:42:10;;;;;;;12.60;2.30;;;;;;;4.45;100.00;100829.03;4918323;29;20040;-72
2023/12/20 02:44:36;;;;;;;10.65;1.65;;;;;;;4.47;100.00;100813.69;4906503;29;20051;-72
2023/12/20 02:47:02;;;;;;;12.82;1.73;;;;;;;4.49;100.00;100811.63;4920721;29;20036;-71
2023/12/20 02:49:28;;;;;;;13.45;1.70;;;;;;;4.46;100.00;100806.78;4933974;28;20058;-71
2023/12/20 02:51:53;;;;;;;13.30;1.90;;;;;;;4.45;100.00;100811.28;4923800;29;20031;-71
2023/12/20 02:54:19;;;;;;;14.23;2.05;;;;;;;4.44;100.00;100799.06;4902790;29;20403;-72
2023/12/20 02:56:44;;;;;;;10.98;2.00;;;;;;;4.45;100.00;100805.16;4903619;29;20098;-70
2023/12/20 02:59:10;;;;;;;11.95;2.47;;;;;;;4.42;100.00;100787.06;4919773;29;20450;-70
2023/12/20 03:01:42;;;;;;;8.65;2.00;;;;;;;4.42;100.00;100795.81;4924269;29;20035;-71
2023/12/20 03:04:08;;;;;;;12.90;2.28;;;;;;;4.40;100.00;100784.63;4936362;28;20036;-71
2023/12/20 03:06:33;;;;;;;14.10;2.00;;;;;;;4.41;100.00;100783.59;4922928;29;20080;-72
2023/12/20 03:08:59;;;;;;;15.80;2.85;;;;;;;4.41;100.00;100786.25;4922225;29;20118;-71
2023/12/20 03:11:28;;;;;;;13.63;1.88;;;;;;;4.39;100.00;100780.34;4921225;29;20055;-70
2023/12/20 03:13:57;;;;;;;13.65;1.90;;;;;;;4.40;100.00;100787.25;4921524;29;20485;-71
2023/12/20 03:16:23;;;;;;;11.52;1.52;;;;;;;4.40;100.00;100784.63;4891986;29;20040;-72
2023/12/20 03:18:49;;;;;;;10.05;1.50;;;;;;;4.40;100.00;100781.97;4925423;29;20171;-70
2023/12/20 03:21:15;;;;;;;14.48;2.47;;;;;;;4.41;100.00;100778.31;4921493;29;20044;-71
2023/12/20 03:23:41;;;;;;;10.75;1.40;;;;;;;4.43;100.00;100776.22;4905787;29;20040;-72
2023/12/20 03:26:07;;;;;;;;;;;;;;;4.44;100.00;100767.22;4908379;29;20122;-71
2023/12/20 03:28:34;;;;;;;8.55;1.40;;;;;;;4.43;100.00;100764.81;4925254;29;19957;-70
2023/12/20 03:31:02;;;;;;;10.05;1.42;;;;;;;4.43;100.00;100762.97;4906881;29;20146;-71
2023/12/20 03:33:28;;;;;;;15.68;2.28;;;;;;;4.44;100.00;100759.28;4904861;29;20039;-71
2023/12/20 03:35:53;;;;;;;11.38;1.67;;;;;;;4.44;100.00;100756.63;4909037;29;20039;-70
2023/12/20 03:38:20;;;;;;;7.63;1.85;;;;;;;4.44;100.00;100756.63;4917422;29;20046;-72
2023/12/20 03:40:45;;;;;;;;;;;;;;;4.46;100.00;100754.53;4954792;23;20068;-80
2023/12/20 03:43:12;;;;;;;9.35;1.80;;;;;;;4.49;100.00;100755.94;4948145;28;20368;-80
2023/12/20 03:45:39;;;;;;;10.57;2.05;;;;;;;4.51;100.00;100756.50;4914589;29;20082;-80
2023/12/20 03:48:06;;;;;;;14.02;1.80;;;;;;;4.50;100.00;100746.94;4891940;29;20032;-79
2023/12/20 03:50:32;;;;;;;11.23;1.42;;;;;;;4.49;100.00;100751.44;4918325;29;20043;-80
2023/12/20 03:53:05;;;;;;;14.77;1.67;;;;;;;4.54;100.00;100738.31;4896732;29;21599;-79
2023/12/20 03:55:32;;;;;;;8.57;1.20;;;;;;;4.51;100.00;100741.41;4915776;29;20592;-80
2023/12/20 03:57:58;;;;;;;8.45;1.50;;;;;;;4.56;100.00;100733.56;4929901;29;20070;-82
2023/12/20 04:00:23;;;;;;;9.65;1.48;;;;;;;4.56;100.00;100732.78;4921967;29;20059;-81
2023/12/20 04:02:49;;;;;;;9.73;1.33;;;;;;;4.56;100.00;100722.16;4909468;29;20048;-83
2023/12/20 04:05:15;;;;;;;10.48;1.58;;;;;;;4.59;100.00;100721.69;4923445;29;20043;-82
2023/12/20 04:07:42;;;;;;;17.10;2.33;;;;;;;4.59;100.00;100719.84;4920485;29;20072;-82
2023/12/20 04:10:11;;;;;;;9.27;1.25;;;;;;;4.60;100.00;100724.09;4908107;29;20039;-81
2023/12/20 04:12:38;;;;;;;6.00;1.17;;;;;;;4.62;100.00;100719.41;4905906;29;20071;-83
2023/12/20 04:15:08;;;;;;;12.98;1.77;;;;;;;4.61;100.00;100725.75;4941462;29;20050;-84
2023/12/20 04:17:35;;;;;;;10.60;1.70;;;;;;;4.62;100.00;100703.47;4912843;29;20042;-82
2023/12/20 04:20:02;;;;;;;11.23;1.75;;;;;;;4.59;100.00;100703.94;4924166;29;20079;-83
2023/12/20 04:22:28;;;;;;;8.32;1.90;;;;;;;4.63;100.00;100706.94;4908743;29;20489;-82
2023/12/20 04:24:54;;;;;;;9.18;1.23;;;;;;;4.62;100.00;100692.88;4949571;29;20083;-83
2023/12/20 04:27:20;;;;;;;9.15;2.03;;;;;;;4.65;100.00;100705.66;4947301;29;20047;-83
2023/12/20 04:29:48;;;;;;;9.32;1.85;;;;;;;4.68;100.00;100703.59;4895369;29;20095;-81
2023/12/20 04:32:16;;;;;;;14.25;2.78;;;;;;;4.68;100.00;100706.25;4906074;29;20095;-82
2023/12/20 04:34:44;;;;;;;11.98;1.98;;;;;;;4.65;100.00;100691.59;4895175;29;20075;-80
2023/12/20 04:37:10;;;;;;;13.13;2.47;;;;;;;4.55;100.00;100689.53;4913823;29;20036;-78
2023/12/20 04:39:40;;;;;;;11.88;2.20;;;;;;;4.57;100.00;100692.75;4928855;29;20040;-79
2023/12/20 04:42:06;;;;;;;13.25;2.53;;;;;;;4.56;100.00;100685.84;4911027;29;20036;-78
2023/12/20 04:44:32;;;;;;;13.30;2.05;;;;;;;4.52;100.00;100671.41;4913043;29;20502;-78
2023/12/20 04:47:00;;;;;;;12.95;2.00;;;;;;;4.53;100.00;100670.38;4916868;29;20044;-80
2023/12/20 04:49:26;;;;;;;11.25;2.00;;;;;;;4.55;100.00;100670.16;4918300;29;20520;-80
2023/12/20 04:51:52;;;;;;;13.85;2.13;;;;;;;4.55;100.00;100670.97;4917257;29;20158;-80
2023/12/20 04:54:18;;;;;;;9.30;2.13;;;;;;;4.56;100.00;100654.00;4914353;29;20350;-82
2023/12/20 04:56:47;;;;;;;12.77;1.90;;;;;;;4.60;100.00;100655.13;4913060;29;20039;-82
2023/12/20 04:59:13;;;;;;;14.45;2.58;;;;;;;4.61;100.00;100650.66;4894908;29;20047;-81
2023/12/20 05:01:39;;;;;;;10.35;1.85;;;;;;;4.61;100.00;100648.03;4913329;29;20233;-81
2023/12/20 05:04:05;;;;;;;10.98;2.10;;;;;;;4.65;100.00;100652.59;4897863;29;20172;-83
2023/12/20 05:06:30;;;;;;;10.73;2.10;;;;;;;4.63;100.00;100653.88;4897650;29;20577;-81
2023/12/20 05:08:56;;;;;;;14.30;2.20;;;;;;;4.67;100.00;100649.72;4911232;29;20777;-81
2023/12/20 05:11:22;;;;;;;13.80;2.65;;;;;;;4.69;100.00;100657.47;4917957;29;20032;-81
2023/12/20 05:13:51;;;;;;;14.23;2.47;;;;;;;4.70;100.00;100654.56;4912315;29;20043;-81
2023/12/20 05:16:17;;;;;;;10.90;2.63;;;;;;;4.70;100.00;100645.81;4929575;29;20056;-81
2023/12/20 05:18:45;;;;;;;17.67;2.30;;;;;;;4.73;100.00;100647.97;4919507;29;20564;-81
2023/12/20 05:21:12;;;;;;;7.80;2.65;;;;;;;4.73;100.00;100648.78;4930327;29;21314;-81
2023/12/20 05:23:38;;;;;;;;;;;;;;;4.78;100.00;100656.06;4914394;29;20076;-78
2023/12/20 05:26:04;;;;;;;11.82;2.70;;;;;;;4.76;100.00;100642.22;4898619;29;19947;-81
2023/12/20 05:28:31;;;;;;;7.28;2.00;;;;;;;4.79;100.00;100645.19;4915410;29;20039;-80
2023/12/20 05:30:58;;;;;;;13.48;2.33;;;;;;;4.79;100.00;100652.34;4900696;29;20047;-81
2023/12/20 05:33:25;;;;;;;11.48;2.75;;;;;;;4.82;100.00;100646.59;4930040;29;20046;-82
2023/12/20 05:35:51;;;;;;;11.50;2.10;;;;;;;4.81;100.00;100623.75;4895422;29;20502;-81
2023/12/20 05:38:16;;;;;;;13.82;3.13;;;;;;;4.85;100.00;100632.84;4881823;29;20080;-81
2023/12/20 05:40:42;;;;;;;13.95;2.50;;;;;;;4.86;100.00;100629.97;4903180;29;20043;-83
2023/12/20 05:43:09;;;;;;;13.95;2.35;;;;;;;4.87;100.00;100628.13;4927385;29;20119;-82
2023/12/20 05:45:35;;;;;;;;;;;;;;;4.85;100.00;100622.25;4913223;29;20098;-81
2023/12/20 05:48:01;;;;;;;8.88;2.00;;;;;;;4.84;100.00;100625.94;4911747;29;19926;-80
2023/12/20 05:50:28;;;;;;;10.13;2.47;;;;;;;4.87;100.00;100641.38;4894603;29;20067;-81
2023/12/20 05:52:55;;;;;;;16.27;2.97;;;;;;;4.88;100.00;100632.41;4919806;29;20039;-82
2023/12/20 05:55:22;;;;;;;10.98;2.83;;;;;;;4.87;100.00;100625.47;4931489;29;20040;-80
2023/12/20 05:57:48;;;;;;;7.55;2.17;;;;;;;4.86;100.00;100621.19;4912454;29;20099;-81
2023/12/20 06:00:16;;;;;;;9.85;2.25;;;;;;;4.89;100.00;100631.34;4914355;29;20103;-80
2023/12/20 06:02:43;;;;;;;12.68;1.88;;;;;;;4.88;100.00;100613.84;4911997;29;20040;-81
2023/12/20 06:05:09;;;;;;;14.70;2.40;;;;;;;4.90;100.00;100617.03;4913338;29;20041;-78
2023/12/20 06:07:35;;;;;;;14.15;2.08;;;;;;;4.93;100.00;100611.25;4913999;29;20032;-81
2023/12/20 06:10:02;;;;;;;10.10;2.08;;;;;;;4.92;100.00;100609.66;4911616;29;20067;-79
2023/12/20 06:12:32;;;;;;;9.23;2.22;;;;;;;4.90;100.00;100612.53;4928052;29;20040;-79
2023/12/20 06:15:01;;;;;;;10.15;2.13;;;;;;;4.87;100.00;100617.50;4929369;29;20115;-79
2023/12/20 06:17:30;;;;;;;17.45;2.67;;;;;;;4.85;100.00;100609.78;4930473;29;20112;-80
2023/12/20 06:19:56;;;;;;;9.63;1.60;;;;;;;4.82;100.00;100599.66;4895087;29;20066;-80
2023/12/20 06:22:22;;;;;;;14.77;2.85;;;;;;;4.81;100.00;100597.22;4899264;29;20067;-80
2023/12/20 06:24:49;;;;;;;12.57;2.08;;;;;;;4.80;100.00;100603.56;4910716;29;20047;-81
2023/12/20 06:27:16;;;;;;;;;;;;;;;4.84;100.00;100607.38;4910548;29;20040;-80
2023/12/20 06:29:44;;;;;;;11.52;2.33;;;;;;;4.83;100.00;100595.94;4927897;29;19937;-81
2023/12/20 06:32:09;;;;;;;10.95;1.88;;;;;;;4.85;100.00;100583.25;4901267;29;20071;-80
2023/12/20 06:34:37;;;;;;;9.65;2.05;;;;;;;4.88;100.00;100589.94;4931321;29;20508;-78
2023/12/20 06:37:05;;;;;;;11.02;1.73;;;;;;;4.92;100.00;100588.41;4895423;29;20038;-80
2023/12/20 06:39:30;;;;;;;6.97;1.70;;;;;;;4.93;100.00;100585.53;4917476;29;20766;-80
2023/12/20 06:41:56;;;;;;;10.27;1.58;;;;;;;4.89;100.00;100583.59;4902315;29;20034;-80
2023/12/20 06:44:23;;;;;;;11.30;2.05;;;;;;;4.94;100.00;100581.00;4926828;29;20110;-79
2023/12/20 06:46:50;;;;;;;11.43;2.28;;;;;;;4.95;100.00;100576.53;4929180;29;20382;-79
2023/12/20 06:49:18;;;;;;;11.73;1.75;;;;;;;4.96;100.00;100584.25;4895158;29;20036;-78
2023/12/20 06:51:44;;;;;;;9.02;1.80;;;;;;;4.94;100.00;100559.78;4903778;29;20118;-79
2023/12/20 06:54:15;;;;;;;10.40;2.22;;;;;;;4.92;100.00;100569.84;4914263;29;20032;-79
2023/12/20 06:56:42;;;;;;;12.18;2.85;;;;;;;4.91;100.00;100562.94;4911397;29;20036;-78
2023/12/20 06:59:08;;;;;;;12.63;1.80;;;;;;;4.93;100.00;100560.84;4900463;29;20032;-80
2023/12/20 07:01:35;;;;;;;13.73;1.98;;;;;;;4.94;100.00;100559.78;4900328;29;20031;-78
2023/12/20 07:04:01;;;;;;;10.45;1.63;;;;;;;4.94;100.00;100551.81;4931271;29;20044;-79
2023/12/20 07:06:28;;;;;;;9.93;1.67;;;;;;;4.93;100.00;100560.84;4909689;29;20143;-78
2023/12/20 07:08:55;;;;;;;17.83;2.17;;;;;;;4.91;100.00;100544.34;4899751;29;20640;-81
2023/12/20 07:11:21;;;;;;;14.77;1.80;;;;;;;4.89;100.00;100552.56;4915868;29;20032;-79
2023/12/20 07:13:49;;;;;;;16.83;2.80;;;;;;;4.83;100.00;100545.53;4914865;29;20043;-79
2023/12/20 07:16:16;;;;;;;19.15;2.42;;;;;;;4.81;100.00;100549.44;4915243;29;20047;-80
2023/12/20 07:18:42;;;;;;;10.77;2.22;;;;;;;4.79;100.00;100543.59;4910391;29;20048;-79
2023/12/20 07:21:08;;;;;;;;;;;;;;;4.81;100.00;100555.59;4916289;29;20111;-78
2023/12/20 07:23:34;;;;;;;13.23;2.05;;;;;;;4.82;100.00;100545.78;4910392;29;19949;-79
2023/12/20 07:26:00;;;;;;;12.43;2.03;;;;;;;4.85;100.00;100547.94;4907225;29;20052;-80
2023/12/20 07:28:28;;;;;;;13.75;2.20;;;;;;;4.86;100.00;100541.59;4933610;29;20095;-80
2023/12/20 07:30:53;;;;;;;12.02;2.17;;;;;;;4.91;100.00;100539.03;4898026;29;20124;-79
2023/12/20 07:33:19;;;;;;;14.10;2.58;;;;;;;4.93;100.00;100550.22;4914594;29;20044;-79
2023/12/20 07:35:45;;;;;;;9.60;1.90;;;;;;;4.94;100.00;100546.50;4895332;29;20039;-80
2023/12/20 07:38:12;;;;;;;15.45;1.90;;;;;;;4.97;100.00;100555.88;4901427;29;20047;-79
2023/12/20 07:40:39;;;;;;;15.55;2.55;;;;;;;4.98;100.00;100547.66;4913272;29;20149;-80
2023/12/20 07:43:05;;;;;;;14.82;2.22;;;;;;;5.00;100.00;100542.91;4904964;29;20090;-80
2023/12/20 07:45:33;;;;;;;11.85;2.60;;;;;;;5.05;100.00;100539.56;4911418;29;20031;-78
2023/12/20 07:48:00;;;;;;;13.45;2.10;;;;;;;5.10;100.00;100537.00;4928923;29;20151;-79
2023/12/20 07:50:26;;;;;;;11.07;2.50;;;;;;;5.12;100.00;100540.22;4927443;29;20520;-79
2023/12/20 07:52:51;;;;;;;9.77;2.10;;;;;;;5.14;100.00;100540.78;4930361;29;20043;-81
2023/12/20 07:55:17;;;;;;;13.35;2.20;;;;;;;5.15;100.00;100524.63;4913606;29;20028;-80
2023/12/20 07:57:43;;;;;;;14.90;2.72;;;;;;;5.20;100.00;100537.19;4918942;29;20502;-80
2023/12/20 08:00:12;;;;;;;11.57;2.58;;;;;;;5.20;100.00;100516.75;4922841;29;20047;-80
2023/12/20 08:02:39;;;;;;;14.45;2.30;;;;;;;5.23;100.00;100526.09;4915483;29;20149;-80
2023/12/20 08:05:06;;;;;;;17.00;2.10;;;;;;;5.24;100.00;100517.06;4931375;29;20107;-79
2023/12/20 08:07:31;;;;;;;11.98;2.92;;;;;;;5.26;100.00;100516.84;4899642;29;20099;-79
2023/12/20 08:09:58;;;;;;;11.80;2.25;;;;;;;5.25;100.00;100523.19;4933084;29;20055;-79
2023/12/20 08:12:27;;;;;;;13.43;2.53;;;;;;;5.28;100.00;100515.53;4918062;29;20301;-80
2023/12/20 08:14:54;;;;;;;14.02;2.78;;;;;;;5.31;100.00;100511.63;4904627;29;20177;-81
2023/12/20 08:17:23;;;;;;;15.27;2.15;;;;;;;5.29;100.00;100503.91;4916694;29;20187;-79
2023/12/20 08:19:49;;;;;;;14.25;2.85;;;;;;;5.31;100.00;100504.44;4926510;29;20048;-81
2023/12/20 08:22:14;;;;;;;13.57;2.30;;;;;;;5.38;100.00;100504.28;4905692;29;20142;-77
2023/12/20 08:24:41;;;;;;;14.15;3.05;;;;;;;5.38;100.00;100499.78;4910549;29;20112;-77
2023/12/20 08:27:06;;;;;;;15.43;2.22;;;;;;;5.40;100.00;100494.22;4894385;29;20040;-78
2023/12/20 08:29:32;;;;;;;11.38;2.50;;;;;;;5.38;100.00;100485.72;4899239;29;20434;-82
2023/12/20 08:31:58;;;;;;;16.23;2.28;;;;;;;5.43;100.00;100483.13;4907000;29;20538;-80
2023/12/20 08:34:30;;;;;;;11.35;2.33;;;;;;;5.47;100.00;100485.06;4911102;29;20040;-80
2023/12/20 08:36:56;;;;;;;12.05;2.83;;;;;;;5.46;100.00;100467.50;4912853;29;20760;-79
2023/12/20 08:39:21;;;;;;;14.93;2.20;;;;;;;5.47;100.00;100466.47;4897898;29;20035;-78
2023/12/20 08:41:47;;;;;;;14.18;1.90;;;;;;;5.46;100.00;100459.53;4883988;29;20048;-78
2023/12/20 08:44:13;;;;;;;15.50;2.25;;;;;;;5.55;100.00;100475.88;4897771;29;20031;-81
2023/12/20 08:46:40;;;;;;;13.07;2.28;;;;;;;5.57;100.00;100460.50;4902546;29;20040;-78
2023/12/20 08:49:07;;;;;;;13.02;2.47;;;;;;;5.60;100.00;100467.19;4915137;29;20031;-80
2023/12/20 08:51:34;;;;;;;11.23;1.90;;;;;;;5.65;100.00;100460.09;4918220;29;20100;-80
2023/12/20 08:54:00;;;;;;;14.35;2.70;;;;;;;5.70;100.00;100454.06;4908593;29;20047;-80
2023/12/20 08:56:28;;;;;;;16.67;2.92;;;;;;;5.80;100.00;100461.34;4899295;29;20046;-80
2023/12/20 08:58:54;;;;;;;16.17;2.50;;;;;;;5.80;100.00;100469.34;4909959;29;20036;-78
2023/12/20 09:01:20;;;;;;;14.60;2.30;;;;;;;5.79;100.00;100481.00;4916942;29;20046;-80
2023/12/20 09:03:47;;;;;;;10.90;2.05;;;;;;;5.67;100.00;100463.31;4898670;29;20043;-79
2023/12/20 09:06:14;;;;;;;11.32;2.10;;;;;;;5.68;100.00;100474.72;4924573;29;20122;-80
2023/12/20 09:08:40;;;;;;;9.00;2.03;;;;;;;5.57;100.00;100479.09;4924586;29;20071;-80
2023/12/20 09:11:06;;;;;;;8.60;1.88;;;;;;;5.52;100.00;100457.78;4907061;29;20039;-75
2023/12/20 09:13:32;;;;;;;15.35;2.90;;;;;;;5.45;100.00;100449.16;4925928;29;20477;-79
2023/12/20 09:15:59;;;;;;;12.60;2.05;;;;;;;5.39;100.00;100450.13;4922993;29;20032;-76
2023/12/20 09:18:25;;;;;;;7.35;1.58;;;;;;;5.36;100.00;100447.97;4910299;29;20040;-79
2023/12/20 09:20:51;;;;;;;9.10;1.80;;;;;;;5.34;100.00;100474.75;4901061;29;20059;-79
2023/12/20 09:23:18;;;;;;;10.93;1.85;;;;;;;5.34;100.00;100479.25;4922840;29;20064;-77
2023/12/20 09:25:44;;;;;;;7.43;1.40;;;;;;;5.25;100.00;100497.44;4905384;29;20047;-79
2023/12/20 09:28:09;;;;;;;8.10;1.63;;;;;;;5.20;100.00;100490.19;4907101;29;20040;-79
2023/12/20 09:30:39;;;;;;;5.57;1.20;;;;;;;5.15;100.00;100492.78;4921975;29;20043;-76
2023/12/20 09:33:05;;;;;;;9.10;0.93;;;;;;;5.10;100.00;100505.16;4891158;29;20035;-79
2023/12/20 09:35:32;;;;;;;5.88;1.23;;;;;;;5.05;100.00;100497.91;4907651;29;20503;-78
2023/12/20 09:37:57;;;;;;;3.40;0.90;;;;;;;5.03;100.00;100496.53;4910696;29;20043;-79
2023/12/20 09:40:26;;;;;;;4.97;0.88;;;;;;;4.97;100.00;100474.41;4892042;29;20044;-79
2023/12/20 09:43:03;;;;;;;4.22;0.90;;;;;;;4.99;100.00;100476.81;4889121;29;20036;-78
2023/12/20 09:45:30;;;;;;;4.32;0.95;;;;;;;4.96;100.00;100478.09;4903511;29;20043;-79
2023/12/20 09:47:58;;;;;;;4.40;0.80;;;;;;;4.95;100.00;100491.63;4896885;29;20044;-79
2023/12/20 09:50:24;;;;;;;1.92;0.60;;;;;;;4.94;100.00;100498.75;4910333;29;20031;-78
2023/12/20 09:52:51;;;;;;;2.25;0.60;;;;;;;4.98;100.00;100493.78;4909041;29;20465;-77
2023/12/20 09:55:18;;;;;;;5.45;0.82;;;;;;;5.00;100.00;100492.50;4918195;29;20099;-80
2023/12/20 09:57:44;;;;;;;4.47;0.90;;;;;;;4.99;100.00;100495.38;4920268;29;20044;-77
2023/12/20 10:00:11;;;;;;;4.47;0.88;;;;;;;5.00;100.00;100511.06;4911184;29;20130;-76
2023/12/20 10:02:55;;;;;;;4.32;0.93;;;;;;;5.00;100.00;100504.97;4926910;29;20596;-80
2023/12/20 10:05:30;;;;;;;3.75;0.60;;;;;;;5.00;100.00;100499.66;4902054;29;20410;-81
2023/12/20 10:07:57;;;;;;;4.07;0.70;;;;;;;4.92;100.00;100500.84;4892199;29;20036;-78
2023/12/20 10:10:24;;;;;;;3.75;0.55;;;;;;;4.96;100.00;100499.34;4896840;29;20052;-79
2023/12/20 10:13:06;;;;;;;1.25;0.50;;;;;;;4.95;100.00;100481.81;4929293;29;20034;-79
2023/12/20 10:15:38;;;;;;;3.15;0.70;;;;;;;4.84;100.00;100464.09;4929487;29;20044;-79
2023/12/20 10:18:05;;;;;;;1.70;0.50;;;;;;;4.87;100.00;100474.22;4924287;29;20024;-79
2023/12/20 10:20:32;;;;;;;1.48;0.52;;;;;;;4.80;100.00;100484.16;4893269;29;20082;-80
2023/12/20 10:22:58;;;;;;;1.77;0.40;;;;;;;4.82;100.00;100492.72;4894169;29;20067;-77
2023/12/20 10:25:25;;;;;;;1.15;0.40;;;;;;;4.80;100.00;100532.72;4928907;29;20047;-79
2023/12/20 10:28:15;;;;;;;1.80;0.30;;;;;;;4.75;100.00;100513.28;4908546;29;20035;-80
2023/12/20 10:30:41;;;;;;;2.03;0.52;;;;;;;4.75;100.00;100497.34;4904151;29;20387;-80
2023/12/20 10:33:08;;;;;;;3.50;0.43;;;;;;;4.70;100.00;100500.72;4914425;29;20039;-76
2023/12/20 10:35:35;;;;;;;3.00;0.63;;;;;;;4.73;100.00;100500.22;4904770;29;20036;-79
2023/12/20 10:38:05;;;;;;;2.70;0.40;;;;;;;4.73;100.00;100494.13;4905386;29;20038;-77
2023/12/20 10:40:34;;;;;;;2.55;0.50;;;;;;;4.72;100.00;100476.59;4904423;29;20079;-81
2023/12/20 10:43:02;;;;;;;3.40;0.60;;;;;;;4.72;100.00;100477.41;4921414;29;20122;-79
2023/12/20 10:45:27;;;;;;;3.85;0.80;;;;;;;4.72;100.00;100479.25;4890624;29;20659;-81
2023/12/20 10:47:53;;;;;;;2.80;0.50;;;;;;;4.80;100.00;100473.56;4892939;29;20498;-80
2023/12/20 10:50:20;;;;;;;3.90;1.23;;;;;;;4.76;100.00;100467.94;4924640;29;20043;-80
2023/12/20 10:52:47;;;;;;;5.22;1.38;;;;;;;4.80;100.00;100468.25;4906429;29;20044;-79
2023/12/20 10:55:14;;;;;;;3.40;0.60;;;;;;;4.81;100.00;100467.19;4909891;29;20130;-80
2023/12/20 10:57:44;;;;;;;3.83;1.40;;;;;;;4.87;100.00;100459.09;4931267;29;20056;-80
2023/12/20 11:00:16;;;;;;;3.42;0.88;;;;;;;4.87;100.00;100463.59;4909127;29;20095;-78
2023/12/20 11:02:43;;;;;;;4.93;1.27;;;;;;;4.84;100.00;100469.38;4914403;29;20075;-79
2023/12/20 11:05:09;;;;;;;4.47;0.70;;;;;;;4.81;100.00;100464.53;4909139;29;20031;-80
2023/12/20 11:07:47;;;;;;;6.50;1.08;;;;;;;4.75;100.00;100461.03;4906648;29;20559;-79
2023/12/20 11:10:21;;;;;;;2.97;0.77;;;;;;;4.68;100.00;100459.56;4886778;29;20414;-81
2023/12/20 11:13:17;;;;;;;5.45;1.05;;;;;;;4.60;100.00;100452.75;4907138;29;20032;-79
2023/12/20 11:15:44;;;;;;;7.00;1.00;;;;;;;4.63;100.00;100453.09;4924494;29;20040;-79
2023/12/20 11:18:10;;;;;;;;;;;;;;;4.64;100.00;100465.31;4909907;29;20040;-80
2023/12/20 11:20:42;;;;;;;5.63;0.77;;;;;;;4.67;100.00;100464.03;4916241;29;19946;-79